sensor_id;sensor_type;location;lat;lon;timestamp;P1;durP1;ratioP1;P2;durP2;ratioP2
77206;SDS011;66190;50.708;7.906;2024-03-17T00:02:00;13.05;;;6.10;;
77206;SDS011;66190;50.708;7.906;2024-03-17T00:04:26;13.57;;;4.80;;
77206;SDS011;66190;50.708;7.906;2024-03-17T00:06:52;11.07;;;4.75;;
77206;SDS011;66190;50.708;7.906;2024-03-17T00:09:18;13.30;;;5.35;;
77206;SDS011;66190;50.708;7.906;2024-03-17T00:11:44;10.90;;;4.30;;
77206;SDS011;66190;50.708;7.906;2024-03-17T00:14:10;13.10;;;4.60;;
77206;SDS011;66190;50.708;7.906;2024-03-17T00:16:36;11.43;;;4.37;;
77206;SDS011;66190;50.708;7.906;2024-03-17T00:19:02;12.10;;;4.80;;
77206;SDS011;66190;50.708;7.906;2024-03-17T00:21:27;11.70;;;4.53;;
77206;SDS011;66190;50.708;7.906;2024-03-17T00:23:53;13.10;;;4.73;;
77206;SDS011;66190;50.708;7.906;2024-03-17T00:26:18;14.43;;;5.27;;
77206;SDS011;66190;50.708;7.906;2024-03-17T00:28:47;16.08;;;5.43;;
77206;SDS011;66190;50.708;7.906;2024-03-17T00:31:16;13.10;;;5.43;;
77206;SDS011;66190;50.708;7.906;2024-03-17T00:33:41;12.50;;;4.70;;
77206;SDS011;66190;50.708;7.906;2024-03-17T00:36:07;13.40;;;4.90;;
77206;SDS011;66190;50.708;7.906;2024-03-17T00:38:33;11.87;;;4.53;;
77206;SDS011;66190;50.708;7.906;2024-03-17T00:40:58;12.27;;;4.90;;
77206;SDS011;66190;50.708;7.906;2024-03-17T00:43:24;10.48;;;4.40;;
77206;SDS011;66190;50.708;7.906;2024-03-17T00:45:52;12.55;;;4.80;;
77206;SDS011;66190;50.708;7.906;2024-03-17T00:48:18;12.15;;;4.32;;
77206;SDS011;66190;50.708;7.906;2024-03-17T00:50:44;10.73;;;4.38;;
77206;SDS011;66190;50.708;7.906;2024-03-17T00:53:10;10.00;;;3.55;;
77206;SDS011;66190;50.708;7.906;2024-03-17T00:55:36;13.15;;;4.45;;
77206;SDS011;66190;50.708;7.906;2024-03-17T00:58:01;10.45;;;4.55;;
77206;SDS011;66190;50.708;7.906;2024-03-17T01:00:28;12.15;;;4.72;;
77206;SDS011;66190;50.708;7.906;2024-03-17T01:02:53;10.60;;;3.93;;
77206;SDS011;66190;50.708;7.906;2024-03-17T01:05:19;10.87;;;4.30;;
77206;SDS011;66190;50.708;7.906;2024-03-17T01:07:44;11.23;;;4.57;;
77206;SDS011;66190;50.708;7.906;2024-03-17T01:10:12;10.77;;;4.30;;
77206;SDS011;66190;50.708;7.906;2024-03-17T01:12:37;13.27;;;4.43;;
77206;SDS011;66190;50.708;7.906;2024-03-17T01:15:04;11.85;;;4.20;;
77206;SDS011;66190;50.708;7.906;2024-03-17T01:17:30;14.33;;;4.73;;
77206;SDS011;66190;50.708;7.906;2024-03-17T01:19:56;10.95;;;3.92;;
77206;SDS011;66190;50.708;7.906;2024-03-17T01:22:21;13.17;;;4.63;;
77206;SDS011;66190;50.708;7.906;2024-03-17T01:24:47;10.83;;;4.00;;
77206;SDS011;66190;50.708;7.906;2024-03-17T01:27:12;14.15;;;4.88;;
77206;SDS011;66190;50.708;7.906;2024-03-17T01:29:41;12.60;;;4.97;;
77206;SDS011;66190;50.708;7.906;2024-03-17T01:32:07;12.27;;;4.53;;
77206;SDS011;66190;50.708;7.906;2024-03-17T01:34:32;15.57;;;5.00;;
77206;SDS011;66190;50.708;7.906;2024-03-17T01:36:57;14.00;;;5.23;;
77206;SDS011;66190;50.708;7.906;2024-03-17T01:39:23;12.33;;;4.50;;
77206;SDS011;66190;50.708;7.906;2024-03-17T01:41:48;13.80;;;4.50;;
77206;SDS011;66190;50.708;7.906;2024-03-17T01:44:24;13.27;;;4.40;;
77206;SDS011;66190;50.708;7.906;2024-03-17T01:46:51;14.35;;;4.75;;
77206;SDS011;66190;50.708;7.906;2024-03-17T01:49:17;11.47;;;4.20;;
77206;SDS011;66190;50.708;7.906;2024-03-17T01:51:44;11.55;;;4.38;;
77206;SDS011;66190;50.708;7.906;2024-03-17T01:54:11;12.05;;;4.68;;
77206;SDS011;66190;50.708;7.906;2024-03-17T01:56:38;10.80;;;4.13;;
77206;SDS011;66190;50.708;7.906;2024-03-17T01:59:04;14.57;;;5.13;;
77206;SDS011;66190;50.708;7.906;2024-03-17T02:01:31;12.63;;;4.75;;
77206;SDS011;66190;50.708;7.906;2024-03-17T02:03:56;12.45;;;4.72;;
77206;SDS011;66190;50.708;7.906;2024-03-17T02:06:23;12.98;;;4.80;;
77206;SDS011;66190;50.708;7.906;2024-03-17T02:08:53;13.97;;;5.13;;
77206;SDS011;66190;50.708;7.906;2024-03-17T02:11:29;11.45;;;4.35;;
77206;SDS011;66190;50.708;7.906;2024-03-17T02:13:58;14.60;;;5.30;;
77206;SDS011;66190;50.708;7.906;2024-03-17T02:16:25;15.03;;;4.90;;
77206;SDS011;66190;50.708;7.906;2024-03-17T02:18:56;14.18;;;4.70;;
77206;SDS011;66190;50.708;7.906;2024-03-17T02:21:23;12.30;;;4.40;;
77206;SDS011;66190;50.708;7.906;2024-03-17T02:23:52;12.88;;;4.55;;
77206;SDS011;66190;50.708;7.906;2024-03-17T02:26:17;13.00;;;4.93;;
77206;SDS011;66190;50.708;7.906;2024-03-17T02:28:44;13.30;;;4.80;;
77206;SDS011;66190;50.708;7.906;2024-03-17T02:31:11;12.63;;;4.68;;
77206;SDS011;66190;50.708;7.906;2024-03-17T02:33:38;12.32;;;4.68;;
77206;SDS011;66190;50.708;7.906;2024-03-17T02:36:04;12.23;;;4.80;;
77206;SDS011;66190;50.708;7.906;2024-03-17T02:38:32;12.48;;;5.32;;
77206;SDS011;66190;50.708;7.906;2024-03-17T02:41:17;15.55;;;5.50;;
77206;SDS011;66190;50.708;7.906;2024-03-17T02:43:43;15.37;;;5.60;;
77206;SDS011;66190;50.708;7.906;2024-03-17T02:46:13;13.35;;;4.90;;
77206;SDS011;66190;50.708;7.906;2024-03-17T02:48:40;15.43;;;5.93;;
77206;SDS011;66190;50.708;7.906;2024-03-17T02:51:10;15.65;;;5.28;;
77206;SDS011;66190;50.708;7.906;2024-03-17T02:53:37;14.52;;;5.38;;
77206;SDS011;66190;50.708;7.906;2024-03-17T02:56:04;14.07;;;5.07;;
77206;SDS011;66190;50.708;7.906;2024-03-17T02:58:31;14.60;;;5.18;;
77206;SDS011;66190;50.708;7.906;2024-03-17T03:00:57;16.13;;;5.82;;
77206;SDS011;66190;50.708;7.906;2024-03-17T03:03:22;15.70;;;5.23;;
77206;SDS011;66190;50.708;7.906;2024-03-17T03:05:48;13.57;;;5.20;;
77206;SDS011;66190;50.708;7.906;2024-03-17T03:08:14;12.05;;;4.57;;
77206;SDS011;66190;50.708;7.906;2024-03-17T03:10:43;15.30;;;5.27;;
77206;SDS011;66190;50.708;7.906;2024-03-17T03:13:09;12.95;;;5.35;;
77206;SDS011;66190;50.708;7.906;2024-03-17T03:15:34;14.27;;;6.27;;
77206;SDS011;66190;50.708;7.906;2024-03-17T03:18:00;17.08;;;6.70;;
77206;SDS011;66190;50.708;7.906;2024-03-17T03:20:26;15.50;;;5.80;;
77206;SDS011;66190;50.708;7.906;2024-03-17T03:22:53;16.50;;;5.30;;
77206;SDS011;66190;50.708;7.906;2024-03-17T03:25:18;14.18;;;5.95;;
77206;SDS011;66190;50.708;7.906;2024-03-17T03:27:44;14.33;;;5.67;;
77206;SDS011;66190;50.708;7.906;2024-03-17T03:30:09;15.57;;;4.83;;
77206;SDS011;66190;50.708;7.906;2024-03-17T03:32:35;13.00;;;5.30;;
77206;SDS011;66190;50.708;7.906;2024-03-17T03:35:03;14.32;;;5.20;;
77206;SDS011;66190;50.708;7.906;2024-03-17T03:37:30;14.45;;;5.28;;
77206;SDS011;66190;50.708;7.906;2024-03-17T03:39:55;17.13;;;5.60;;
77206;SDS011;66190;50.708;7.906;2024-03-17T03:42:21;14.15;;;4.85;;
77206;SDS011;66190;50.708;7.906;2024-03-17T03:44:48;13.02;;;5.13;;
77206;SDS011;66190;50.708;7.906;2024-03-17T03:47:14;12.83;;;4.63;;
77206;SDS011;66190;50.708;7.906;2024-03-17T03:49:40;14.77;;;5.57;;
77206;SDS011;66190;50.708;7.906;2024-03-17T03:52:05;14.07;;;4.90;;
77206;SDS011;66190;50.708;7.906;2024-03-17T03:54:31;14.38;;;5.00;;
77206;SDS011;66190;50.708;7.906;2024-03-17T03:56:56;13.98;;;5.03;;
77206;SDS011;66190;50.708;7.906;2024-03-17T03:59:22;13.13;;;5.23;;
77206;SDS011;66190;50.708;7.906;2024-03-17T04:01:49;15.25;;;6.00;;
77206;SDS011;66190;50.708;7.906;2024-03-17T04:04:14;14.37;;;5.70;;
77206;SDS011;66190;50.708;7.906;2024-03-17T04:06:40;16.67;;;6.22;;
77206;SDS011;66190;50.708;7.906;2024-03-17T04:09:05;15.02;;;5.65;;
77206;SDS011;66190;50.708;7.906;2024-03-17T04:11:32;16.50;;;5.43;;
77206;SDS011;66190;50.708;7.906;2024-03-17T04:13:59;16.33;;;5.65;;
77206;SDS011;66190;50.708;7.906;2024-03-17T04:16:25;15.17;;;6.27;;
77206;SDS011;66190;50.708;7.906;2024-03-17T04:18:51;17.42;;;5.97;;
77206;SDS011;66190;50.708;7.906;2024-03-17T04:21:17;15.47;;;5.27;;
77206;SDS011;66190;50.708;7.906;2024-03-17T04:23:43;12.65;;;5.10;;
77206;SDS011;66190;50.708;7.906;2024-03-17T04:26:08;12.70;;;4.47;;
77206;SDS011;66190;50.708;7.906;2024-03-17T04:28:34;12.55;;;4.60;;
77206;SDS011;66190;50.708;7.906;2024-03-17T04:31:07;16.27;;;5.10;;
77206;SDS011;66190;50.708;7.906;2024-03-17T04:33:33;12.80;;;4.70;;
77206;SDS011;66190;50.708;7.906;2024-03-17T04:35:59;13.23;;;4.60;;
77206;SDS011;66190;50.708;7.906;2024-03-17T04:38:27;12.43;;;4.43;;
77206;SDS011;66190;50.708;7.906;2024-03-17T04:40:53;12.90;;;5.05;;
77206;SDS011;66190;50.708;7.906;2024-03-17T04:43:29;14.80;;;5.85;;
77206;SDS011;66190;50.708;7.906;2024-03-17T04:46:00;15.90;;;6.85;;
77206;SDS011;66190;50.708;7.906;2024-03-17T04:48:29;19.85;;;8.73;;
77206;SDS011;66190;50.708;7.906;2024-03-17T04:50:55;19.13;;;7.90;;
77206;SDS011;66190;50.708;7.906;2024-03-17T04:53:21;19.07;;;8.03;;
77206;SDS011;66190;50.708;7.906;2024-03-17T04:55:46;18.67;;;7.00;;
77206;SDS011;66190;50.708;7.906;2024-03-17T04:58:12;14.70;;;6.40;;
77206;SDS011;66190;50.708;7.906;2024-03-17T05:00:37;22.17;;;6.40;;
77206;SDS011;66190;50.708;7.906;2024-03-17T05:03:02;17.13;;;6.87;;
77206;SDS011;66190;50.708;7.906;2024-03-17T05:05:28;14.35;;;5.55;;
77206;SDS011;66190;50.708;7.906;2024-03-17T05:07:54;15.38;;;5.95;;
77206;SDS011;66190;50.708;7.906;2024-03-17T05:10:20;16.30;;;5.47;;
77206;SDS011;66190;50.708;7.906;2024-03-17T05:12:45;15.00;;;5.40;;
77206;SDS011;66190;50.708;7.906;2024-03-17T05:15:11;20.23;;;6.32;;
77206;SDS011;66190;50.708;7.906;2024-03-17T05:17:36;21.87;;;7.57;;
77206;SDS011;66190;50.708;7.906;2024-03-17T05:20:01;17.70;;;6.70;;
77206;SDS011;66190;50.708;7.906;2024-03-17T05:22:28;15.65;;;6.35;;
77206;SDS011;66190;50.708;7.906;2024-03-17T05:24:53;18.63;;;6.27;;
77206;SDS011;66190;50.708;7.906;2024-03-17T05:27:18;17.83;;;6.27;;
77206;SDS011;66190;50.708;7.906;2024-03-17T05:29:44;13.70;;;5.20;;
77206;SDS011;66190;50.708;7.906;2024-03-17T05:32:09;14.87;;;5.63;;
77206;SDS011;66190;50.708;7.906;2024-03-17T05:34:35;18.75;;;5.50;;
77206;SDS011;66190;50.708;7.906;2024-03-17T05:37:00;14.60;;;5.03;;
77206;SDS011;66190;50.708;7.906;2024-03-17T05:39:26;17.47;;;5.60;;
77206;SDS011;66190;50.708;7.906;2024-03-17T05:41:52;15.38;;;5.32;;
77206;SDS011;66190;50.708;7.906;2024-03-17T05:44:18;18.52;;;6.10;;
77206;SDS011;66190;50.708;7.906;2024-03-17T05:46:43;16.03;;;5.60;;
77206;SDS011;66190;50.708;7.906;2024-03-17T05:49:09;15.57;;;5.63;;
77206;SDS011;66190;50.708;7.906;2024-03-17T05:51:35;15.45;;;5.10;;
77206;SDS011;66190;50.708;7.906;2024-03-17T05:54:00;14.73;;;4.97;;
77206;SDS011;66190;50.708;7.906;2024-03-17T05:56:26;14.83;;;5.33;;
77206;SDS011;66190;50.708;7.906;2024-03-17T05:58:51;12.60;;;5.07;;
77206;SDS011;66190;50.708;7.906;2024-03-17T06:01:17;14.30;;;5.43;;
77206;SDS011;66190;50.708;7.906;2024-03-17T06:03:42;13.63;;;5.00;;
77206;SDS011;66190;50.708;7.906;2024-03-17T06:06:08;13.40;;;5.27;;
77206;SDS011;66190;50.708;7.906;2024-03-17T06:08:34;12.55;;;4.97;;
77206;SDS011;66190;50.708;7.906;2024-03-17T06:11:00;13.40;;;5.13;;
77206;SDS011;66190;50.708;7.906;2024-03-17T06:13:28;13.27;;;4.80;;
77206;SDS011;66190;50.708;7.906;2024-03-17T06:15:54;12.88;;;4.80;;
77206;SDS011;66190;50.708;7.906;2024-03-17T06:18:19;12.30;;;4.18;;
77206;SDS011;66190;50.708;7.906;2024-03-17T06:20:45;11.57;;;4.13;;
77206;SDS011;66190;50.708;7.906;2024-03-17T06:23:12;13.38;;;5.05;;
77206;SDS011;66190;50.708;7.906;2024-03-17T06:25:39;16.85;;;5.20;;
77206;SDS011;66190;50.708;7.906;2024-03-17T06:28:09;14.23;;;4.83;;
77206;SDS011;66190;50.708;7.906;2024-03-17T06:30:41;13.30;;;4.68;;
77206;SDS011;66190;50.708;7.906;2024-03-17T06:33:07;11.77;;;4.53;;
77206;SDS011;66190;50.708;7.906;2024-03-17T06:35:36;11.02;;;3.83;;
77206;SDS011;66190;50.708;7.906;2024-03-17T06:38:01;12.20;;;4.63;;
77206;SDS011;66190;50.708;7.906;2024-03-17T06:40:27;13.47;;;4.93;;
77206;SDS011;66190;50.708;7.906;2024-03-17T06:42:53;13.13;;;4.50;;
77206;SDS011;66190;50.708;7.906;2024-03-17T06:45:18;14.45;;;5.72;;
77206;SDS011;66190;50.708;7.906;2024-03-17T06:47:45;16.35;;;6.82;;
77206;SDS011;66190;50.708;7.906;2024-03-17T06:50:11;17.03;;;6.53;;
77206;SDS011;66190;50.708;7.906;2024-03-17T06:52:37;17.45;;;6.75;;
77206;SDS011;66190;50.708;7.906;2024-03-17T06:55:02;13.20;;;5.53;;
77206;SDS011;66190;50.708;7.906;2024-03-17T06:57:29;13.23;;;4.88;;
77206;SDS011;66190;50.708;7.906;2024-03-17T06:59:54;15.53;;;5.40;;
77206;SDS011;66190;50.708;7.906;2024-03-17T07:02:19;15.53;;;5.13;;
77206;SDS011;66190;50.708;7.906;2024-03-17T07:04:45;13.97;;;4.67;;
77206;SDS011;66190;50.708;7.906;2024-03-17T07:07:12;12.18;;;4.60;;
77206;SDS011;66190;50.708;7.906;2024-03-17T07:09:37;14.57;;;4.78;;
77206;SDS011;66190;50.708;7.906;2024-03-17T07:12:04;13.30;;;4.75;;
77206;SDS011;66190;50.708;7.906;2024-03-17T07:14:33;13.60;;;4.77;;
77206;SDS011;66190;50.708;7.906;2024-03-17T07:16:59;12.60;;;5.20;;
77206;SDS011;66190;50.708;7.906;2024-03-17T07:19:25;12.20;;;4.57;;
77206;SDS011;66190;50.708;7.906;2024-03-17T07:21:50;11.60;;;4.63;;
77206;SDS011;66190;50.708;7.906;2024-03-17T07:24:16;12.95;;;4.72;;
77206;SDS011;66190;50.708;7.906;2024-03-17T07:26:41;14.57;;;4.50;;
77206;SDS011;66190;50.708;7.906;2024-03-17T07:29:06;13.10;;;4.77;;
77206;SDS011;66190;50.708;7.906;2024-03-17T07:31:33;13.27;;;4.65;;
77206;SDS011;66190;50.708;7.906;2024-03-17T07:33:59;13.50;;;4.70;;
77206;SDS011;66190;50.708;7.906;2024-03-17T07:36:24;13.63;;;4.80;;
77206;SDS011;66190;50.708;7.906;2024-03-17T07:38:49;10.60;;;3.53;;
77206;SDS011;66190;50.708;7.906;2024-03-17T07:41:16;11.03;;;4.23;;
77206;SDS011;66190;50.708;7.906;2024-03-17T07:43:41;12.43;;;3.85;;
77206;SDS011;66190;50.708;7.906;2024-03-17T07:46:07;9.77;;;3.53;;
77206;SDS011;66190;50.708;7.906;2024-03-17T07:48:37;8.75;;;3.10;;
77206;SDS011;66190;50.708;7.906;2024-03-17T07:51:05;9.70;;;2.80;;
77206;SDS011;66190;50.708;7.906;2024-03-17T07:53:35;10.85;;;3.45;;
77206;SDS011;66190;50.708;7.906;2024-03-17T07:56:08;8.53;;;3.17;;
77206;SDS011;66190;50.708;7.906;2024-03-17T07:58:35;8.35;;;2.80;;
77206;SDS011;66190;50.708;7.906;2024-03-17T08:01:11;6.95;;;2.20;;
77206;SDS011;66190;50.708;7.906;2024-03-17T08:03:38;8.40;;;3.22;;
77206;SDS011;66190;50.708;7.906;2024-03-17T08:06:05;7.07;;;2.50;;
77206;SDS011;66190;50.708;7.906;2024-03-17T08:08:32;9.60;;;3.00;;
77206;SDS011;66190;50.708;7.906;2024-03-17T08:10:59;7.55;;;2.72;;
77206;SDS011;66190;50.708;7.906;2024-03-17T08:13:25;8.50;;;2.63;;
77206;SDS011;66190;50.708;7.906;2024-03-17T08:15:56;7.90;;;2.28;;
77206;SDS011;66190;50.708;7.906;2024-03-17T08:18:22;8.60;;;3.15;;
77206;SDS011;66190;50.708;7.906;2024-03-17T08:20:47;7.23;;;2.50;;
77206;SDS011;66190;50.708;7.906;2024-03-17T08:23:13;6.23;;;2.33;;
77206;SDS011;66190;50.708;7.906;2024-03-17T08:25:38;8.63;;;2.97;;
77206;SDS011;66190;50.708;7.906;2024-03-17T08:28:04;8.15;;;2.58;;
77206;SDS011;66190;50.708;7.906;2024-03-17T08:30:31;9.93;;;2.60;;
77206;SDS011;66190;50.708;7.906;2024-03-17T08:32:56;7.85;;;2.72;;
77206;SDS011;66190;50.708;7.906;2024-03-17T08:35:22;8.10;;;2.80;;
77206;SDS011;66190;50.708;7.906;2024-03-17T08:37:48;9.63;;;3.20;;
77206;SDS011;66190;50.708;7.906;2024-03-17T08:40:13;8.13;;;2.50;;
77206;SDS011;66190;50.708;7.906;2024-03-17T08:42:39;8.15;;;3.30;;
77206;SDS011;66190;50.708;7.906;2024-03-17T08:45:05;7.83;;;2.83;;
77206;SDS011;66190;50.708;7.906;2024-03-17T08:47:31;8.48;;;3.13;;
77206;SDS011;66190;50.708;7.906;2024-03-17T08:49:56;11.50;;;3.10;;
77206;SDS011;66190;50.708;7.906;2024-03-17T08:52:23;9.15;;;3.03;;
77206;SDS011;66190;50.708;7.906;2024-03-17T08:54:48;10.60;;;3.90;;
77206;SDS011;66190;50.708;7.906;2024-03-17T08:57:16;8.77;;;2.83;;
77206;SDS011;66190;50.708;7.906;2024-03-17T08:59:42;8.50;;;3.33;;
77206;SDS011;66190;50.708;7.906;2024-03-17T09:02:11;8.75;;;3.08;;
77206;SDS011;66190;50.708;7.906;2024-03-17T09:04:39;8.85;;;3.20;;
77206;SDS011;66190;50.708;7.906;2024-03-17T09:07:05;7.57;;;2.63;;
77206;SDS011;66190;50.708;7.906;2024-03-17T09:09:31;9.10;;;3.10;;
77206;SDS011;66190;50.708;7.906;2024-03-17T09:11:56;8.70;;;2.97;;
77206;SDS011;66190;50.708;7.906;2024-03-17T09:14:22;9.43;;;3.00;;
77206;SDS011;66190;50.708;7.906;2024-03-17T09:16:47;11.07;;;3.40;;
77206;SDS011;66190;50.708;7.906;2024-03-17T09:19:13;7.85;;;2.85;;
77206;SDS011;66190;50.708;7.906;2024-03-17T09:21:39;9.67;;;2.77;;
77206;SDS011;66190;50.708;7.906;2024-03-17T09:24:08;9.02;;;3.20;;
77206;SDS011;66190;50.708;7.906;2024-03-17T09:26:33;7.25;;;2.90;;
77206;SDS011;66190;50.708;7.906;2024-03-17T09:29:00;8.23;;;3.00;;
77206;SDS011;66190;50.708;7.906;2024-03-17T09:31:28;8.10;;;3.30;;
77206;SDS011;66190;50.708;7.906;2024-03-17T09:33:53;6.90;;;2.87;;
77206;SDS011;66190;50.708;7.906;2024-03-17T09:36:19;7.18;;;2.78;;
77206;SDS011;66190;50.708;7.906;2024-03-17T09:38:45;8.83;;;3.10;;
77206;SDS011;66190;50.708;7.906;2024-03-17T09:41:29;9.38;;;3.25;;
77206;SDS011;66190;50.708;7.906;2024-03-17T09:43:58;8.13;;;3.08;;
77206;SDS011;66190;50.708;7.906;2024-03-17T09:46:24;8.13;;;2.63;;
77206;SDS011;66190;50.708;7.906;2024-03-17T09:48:51;7.50;;;2.58;;
77206;SDS011;66190;50.708;7.906;2024-03-17T09:51:26;9.07;;;2.97;;
77206;SDS011;66190;50.708;7.906;2024-03-17T09:53:52;8.57;;;2.78;;
77206;SDS011;66190;50.708;7.906;2024-03-17T09:56:21;8.43;;;2.90;;
77206;SDS011;66190;50.708;7.906;2024-03-17T09:58:50;8.95;;;2.83;;
77206;SDS011;66190;50.708;7.906;2024-03-17T10:01:17;9.88;;;3.15;;
77206;SDS011;66190;50.708;7.906;2024-03-17T10:06:15;7.22;;;2.78;;
77206;SDS011;66190;50.708;7.906;2024-03-17T10:08:41;8.05;;;2.85;;
77206;SDS011;66190;50.708;7.906;2024-03-17T10:11:14;7.70;;;2.70;;
77206;SDS011;66190;50.708;7.906;2024-03-17T10:13:46;7.20;;;2.80;;
77206;SDS011;66190;50.708;7.906;2024-03-17T10:16:25;7.93;;;2.58;;
77206;SDS011;66190;50.708;7.906;2024-03-17T10:21:57;7.43;;;2.90;;
77206;SDS011;66190;50.708;7.906;2024-03-17T10:24:25;6.55;;;2.13;;
77206;SDS011;66190;50.708;7.906;2024-03-17T10:31:47;6.88;;;2.95;;
77206;SDS011;66190;50.708;7.906;2024-03-17T10:34:16;10.23;;;2.80;;
77206;SDS011;66190;50.708;7.906;2024-03-17T10:36:44;8.88;;;3.08;;
77206;SDS011;66190;50.708;7.906;2024-03-17T10:39:24;8.00;;;2.78;;
77206;SDS011;66190;50.708;7.906;2024-03-17T10:41:58;6.43;;;2.53;;
77206;SDS011;66190;50.708;7.906;2024-03-17T10:44:32;8.18;;;2.65;;
77206;SDS011;66190;50.708;7.906;2024-03-17T10:47:00;7.60;;;2.78;;
77206;SDS011;66190;50.708;7.906;2024-03-17T10:49:30;7.90;;;2.80;;
77206;SDS011;66190;50.708;7.906;2024-03-17T10:51:58;6.95;;;2.70;;
77206;SDS011;66190;50.708;7.906;2024-03-17T10:54:29;6.53;;;2.60;;
77206;SDS011;66190;50.708;7.906;2024-03-17T10:56:56;7.50;;;3.03;;
77206;SDS011;66190;50.708;7.906;2024-03-17T10:59:39;6.93;;;2.53;;
77206;SDS011;66190;50.708;7.906;2024-03-17T11:02:27;9.15;;;3.00;;
77206;SDS011;66190;50.708;7.906;2024-03-17T11:05:03;7.80;;;3.15;;
77206;SDS011;66190;50.708;7.906;2024-03-17T11:07:33;7.88;;;3.03;;
77206;SDS011;66190;50.708;7.906;2024-03-17T11:10:02;9.55;;;3.30;;
77206;SDS011;66190;50.708;7.906;2024-03-17T11:12:43;7.88;;;3.00;;
77206;SDS011;66190;50.708;7.906;2024-03-17T11:17:48;8.77;;;2.72;;
77206;SDS011;66190;50.708;7.906;2024-03-17T11:20:21;7.55;;;3.10;;
77206;SDS011;66190;50.708;7.906;2024-03-17T11:22:52;8.40;;;3.50;;
77206;SDS011;66190;50.708;7.906;2024-03-17T11:27:50;10.18;;;3.65;;
77206;SDS011;66190;50.708;7.906;2024-03-17T11:44:15;10.25;;;3.50;;
77206;SDS011;66190;50.708;7.906;2024-03-17T11:46:42;7.32;;;3.35;;
77206;SDS011;66190;50.708;7.906;2024-03-17T11:49:23;8.00;;;3.20;;
77206;SDS011;66190;50.708;7.906;2024-03-17T11:51:50;8.02;;;3.20;;
77206;SDS011;66190;50.708;7.906;2024-03-17T11:54:23;9.10;;;3.13;;
77206;SDS011;66190;50.708;7.906;2024-03-17T11:56:52;9.90;;;3.40;;
77206;SDS011;66190;50.708;7.906;2024-03-17T11:59:19;9.50;;;3.38;;
77206;SDS011;66190;50.708;7.906;2024-03-17T12:01:48;10.07;;;3.63;;
77206;SDS011;66190;50.708;7.906;2024-03-17T12:04:15;8.63;;;3.60;;
77206;SDS011;66190;50.708;7.906;2024-03-17T12:06:45;9.10;;;3.80;;
77206;SDS011;66190;50.708;7.906;2024-03-17T12:11:45;7.97;;;3.17;;
77206;SDS011;66190;50.708;7.906;2024-03-17T12:14:19;9.25;;;3.85;;
77206;SDS011;66190;50.708;7.906;2024-03-17T12:16:48;7.40;;;3.58;;
77206;SDS011;66190;50.708;7.906;2024-03-17T12:19:15;8.57;;;3.40;;
77206;SDS011;66190;50.708;7.906;2024-03-17T12:21:57;8.35;;;3.72;;
77206;SDS011;66190;50.708;7.906;2024-03-17T12:24:25;8.52;;;3.80;;
77206;SDS011;66190;50.708;7.906;2024-03-17T12:26:52;8.30;;;3.58;;
77206;SDS011;66190;50.708;7.906;2024-03-17T12:31:58;8.30;;;3.83;;
77206;SDS011;66190;50.708;7.906;2024-03-17T12:34:26;9.25;;;3.78;;
77206;SDS011;66190;50.708;7.906;2024-03-17T12:36:53;7.75;;;3.25;;
77206;SDS011;66190;50.708;7.906;2024-03-17T12:39:20;10.93;;;4.10;;
77206;SDS011;66190;50.708;7.906;2024-03-17T12:44:39;9.73;;;4.20;;
77206;SDS011;66190;50.708;7.906;2024-03-17T12:47:14;7.95;;;3.13;;
77206;SDS011;66190;50.708;7.906;2024-03-17T12:49:44;8.30;;;3.15;;
77206;SDS011;66190;50.708;7.906;2024-03-17T12:52:24;8.45;;;3.90;;
77206;SDS011;66190;50.708;7.906;2024-03-17T12:54:57;8.05;;;3.50;;
77206;SDS011;66190;50.708;7.906;2024-03-17T12:57:44;9.37;;;3.60;;
77206;SDS011;66190;50.708;7.906;2024-03-17T13:00:28;8.32;;;3.53;;
77206;SDS011;66190;50.708;7.906;2024-03-17T13:02:58;14.18;;;5.75;;
77206;SDS011;66190;50.708;7.906;2024-03-17T13:05:24;7.97;;;2.95;;
77206;SDS011;66190;50.708;7.906;2024-03-17T13:07:49;9.60;;;3.03;;
77206;SDS011;66190;50.708;7.906;2024-03-17T13:10:16;7.35;;;3.63;;
77206;SDS011;66190;50.708;7.906;2024-03-17T13:12:43;7.43;;;3.63;;
77206;SDS011;66190;50.708;7.906;2024-03-17T13:15:14;8.27;;;3.75;;
77206;SDS011;66190;50.708;7.906;2024-03-17T13:17:43;7.95;;;3.60;;
77206;SDS011;66190;50.708;7.906;2024-03-17T13:20:16;9.05;;;3.22;;
77206;SDS011;66190;50.708;7.906;2024-03-17T13:22:42;10.07;;;3.55;;
77206;SDS011;66190;50.708;7.906;2024-03-17T13:25:12;8.23;;;2.90;;
77206;SDS011;66190;50.708;7.906;2024-03-17T13:27:41;7.10;;;2.78;;
77206;SDS011;66190;50.708;7.906;2024-03-17T13:30:07;7.60;;;3.40;;
77206;SDS011;66190;50.708;7.906;2024-03-17T13:32:34;7.97;;;3.22;;
77206;SDS011;66190;50.708;7.906;2024-03-17T13:35:00;8.30;;;3.20;;
77206;SDS011;66190;50.708;7.906;2024-03-17T13:37:26;8.43;;;3.45;;
77206;SDS011;66190;50.708;7.906;2024-03-17T13:39:52;8.35;;;3.55;;
77206;SDS011;66190;50.708;7.906;2024-03-17T13:42:17;7.27;;;3.07;;
77206;SDS011;66190;50.708;7.906;2024-03-17T13:44:42;8.77;;;3.23;;
77206;SDS011;66190;50.708;7.906;2024-03-17T13:47:08;8.83;;;3.30;;
77206;SDS011;66190;50.708;7.906;2024-03-17T13:49:33;10.23;;;3.80;;
77206;SDS011;66190;50.708;7.906;2024-03-17T13:51:59;6.82;;;3.20;;
77206;SDS011;66190;50.708;7.906;2024-03-17T13:54:24;8.80;;;3.30;;
77206;SDS011;66190;50.708;7.906;2024-03-17T13:56:50;6.97;;;3.30;;
77206;SDS011;66190;50.708;7.906;2024-03-17T13:59:16;9.63;;;3.53;;
77206;SDS011;66190;50.708;7.906;2024-03-17T14:01:42;7.60;;;3.67;;
77206;SDS011;66190;50.708;7.906;2024-03-17T14:04:15;7.53;;;3.38;;
77206;SDS011;66190;50.708;7.906;2024-03-17T14:06:42;7.90;;;3.28;;
77206;SDS011;66190;50.708;7.906;2024-03-17T14:09:11;7.85;;;3.10;;
77206;SDS011;66190;50.708;7.906;2024-03-17T14:11:37;7.38;;;3.33;;
77206;SDS011;66190;50.708;7.906;2024-03-17T14:14:03;7.30;;;2.90;;
77206;SDS011;66190;50.708;7.906;2024-03-17T14:16:30;8.10;;;3.00;;
77206;SDS011;66190;50.708;7.906;2024-03-17T14:18:58;9.07;;;3.33;;
77206;SDS011;66190;50.708;7.906;2024-03-17T14:21:23;7.60;;;3.50;;
77206;SDS011;66190;50.708;7.906;2024-03-17T14:23:48;7.53;;;2.92;;
77206;SDS011;66190;50.708;7.906;2024-03-17T14:26:14;9.30;;;3.73;;
77206;SDS011;66190;50.708;7.906;2024-03-17T14:28:39;6.70;;;3.20;;
77206;SDS011;66190;50.708;7.906;2024-03-17T14:31:05;7.30;;;3.00;;
77206;SDS011;66190;50.708;7.906;2024-03-17T14:33:31;7.22;;;2.90;;
77206;SDS011;66190;50.708;7.906;2024-03-17T14:35:57;7.83;;;3.37;;
77206;SDS011;66190;50.708;7.906;2024-03-17T14:38:22;8.88;;;3.20;;
77206;SDS011;66190;50.708;7.906;2024-03-17T14:40:50;7.38;;;3.38;;
77206;SDS011;66190;50.708;7.906;2024-03-17T14:43:19;9.38;;;3.53;;
77206;SDS011;66190;50.708;7.906;2024-03-17T14:45:45;12.73;;;5.65;;
77206;SDS011;66190;50.708;7.906;2024-03-17T14:48:11;10.63;;;4.28;;
77206;SDS011;66190;50.708;7.906;2024-03-17T14:50:38;11.07;;;4.77;;
77206;SDS011;66190;50.708;7.906;2024-03-17T14:53:04;9.98;;;3.28;;
77206;SDS011;66190;50.708;7.906;2024-03-17T14:55:30;7.38;;;3.20;;
77206;SDS011;66190;50.708;7.906;2024-03-17T14:57:56;7.33;;;2.93;;
77206;SDS011;66190;50.708;7.906;2024-03-17T15:00:21;9.02;;;3.13;;
77206;SDS011;66190;50.708;7.906;2024-03-17T15:02:50;9.93;;;3.45;;
77206;SDS011;66190;50.708;7.906;2024-03-17T15:05:17;6.90;;;3.22;;
77206;SDS011;66190;50.708;7.906;2024-03-17T15:07:44;8.15;;;4.13;;
77206;SDS011;66190;50.708;7.906;2024-03-17T15:10:10;8.35;;;3.63;;
77206;SDS011;66190;50.708;7.906;2024-03-17T15:12:37;9.47;;;2.70;;
77206;SDS011;66190;50.708;7.906;2024-03-17T15:15:05;8.40;;;3.08;;
77206;SDS011;66190;50.708;7.906;2024-03-17T15:17:33;10.05;;;3.58;;
77206;SDS011;66190;50.708;7.906;2024-03-17T15:19:58;7.90;;;3.13;;